sensor_id;sensor_type;location;lat;lon;timestamp;P1;durP1;ratioP1;P2;durP2;ratioP2
17864;SDS011;9058;52.018;4.202;2023-04-03T00:02:02;6.57;;;1.73;;
17864;SDS011;9058;52.018;4.202;2023-04-03T00:04:29;2.50;;;1.50;;
17864;SDS011;9058;52.018;4.202;2023-04-03T00:06:55;2.83;;;1.63;;
17864;SDS011;9058;52.018;4.202;2023-04-03T00:09:22;1.50;;;1.23;;
17864;SDS011;9058;52.018;4.202;2023-04-03T00:11:49;2.85;;;1.80;;
17864;SDS011;9058;52.018;4.202;2023-04-03T00:14:15;2.88;;;1.25;;
17864;SDS011;9058;52.018;4.202;2023-04-03T00:16:42;3.00;;;1.50;;
17864;SDS011;9058;52.018;4.202;2023-04-03T00:19:11;1.88;;;1.35;;
17864;SDS011;9058;52.018;4.202;2023-04-03T00:21:38;3.70;;;1.50;;
17864;SDS011;9058;52.018;4.202;2023-04-03T00:24:05;4.17;;;1.30;;
17864;SDS011;9058;52.018;4.202;2023-04-03T00:26:32;2.77;;;1.27;;
17864;SDS011;9058;52.018;4.202;2023-04-03T00:28:59;2.63;;;1.47;;
17864;SDS011;9058;52.018;4.202;2023-04-03T00:31:26;2.77;;;1.07;;
17864;SDS011;9058;52.018;4.202;2023-04-03T00:33:53;2.83;;;1.73;;
17864;SDS011;9058;52.018;4.202;2023-04-03T00:36:20;2.10;;;1.40;;
17864;SDS011;9058;52.018;4.202;2023-04-03T00:38:47;3.87;;;1.30;;
17864;SDS011;9058;52.018;4.202;2023-04-03T00:41:14;2.93;;;1.80;;
17864;SDS011;9058;52.018;4.202;2023-04-03T00:43:40;3.07;;;1.50;;
17864;SDS011;9058;52.018;4.202;2023-04-03T00:46:07;2.60;;;1.30;;
17864;SDS011;9058;52.018;4.202;2023-04-03T00:48:36;1.88;;;1.23;;
17864;SDS011;9058;52.018;4.202;2023-04-03T00:51:03;2.57;;;1.70;;
17864;SDS011;9058;52.018;4.202;2023-04-03T00:53:32;1.93;;;1.50;;
17864;SDS011;9058;52.018;4.202;2023-04-03T00:55:59;1.87;;;1.40;;
17864;SDS011;9058;52.018;4.202;2023-04-03T00:58:27;1.80;;;1.30;;
17864;SDS011;9058;52.018;4.202;2023-04-03T01:00:55;1.63;;;1.30;;
17864;SDS011;9058;52.018;4.202;2023-04-03T01:03:24;2.23;;;1.10;;
17864;SDS011;9058;52.018;4.202;2023-04-03T01:05:50;1.67;;;1.13;;
17864;SDS011;9058;52.018;4.202;2023-04-03T01:08:17;2.20;;;1.30;;
17864;SDS011;9058;52.018;4.202;2023-04-03T01:10:45;2.93;;;1.57;;
17864;SDS011;9058;52.018;4.202;2023-04-03T01:13:18;2.77;;;1.80;;
17864;SDS011;9058;52.018;4.202;2023-04-03T01:15:45;3.97;;;1.73;;
17864;SDS011;9058;52.018;4.202;2023-04-03T01:18:12;3.33;;;1.40;;
17864;SDS011;9058;52.018;4.202;2023-04-03T01:20:44;3.10;;;1.40;;
17864;SDS011;9058;52.018;4.202;2023-04-03T01:23:19;1.70;;;1.23;;
17864;SDS011;9058;52.018;4.202;2023-04-03T01:25:50;1.27;;;1.17;;
17864;SDS011;9058;52.018;4.202;2023-04-03T01:28:17;2.27;;;1.33;;
17864;SDS011;9058;52.018;4.202;2023-04-03T01:30:45;1.30;;;1.20;;
17864;SDS011;9058;52.018;4.202;2023-04-03T01:33:15;2.97;;;1.48;;
17864;SDS011;9058;52.018;4.202;2023-04-03T01:35:42;2.73;;;1.50;;
17864;SDS011;9058;52.018;4.202;2023-04-03T01:38:09;3.63;;;1.60;;
17864;SDS011;9058;52.018;4.202;2023-04-03T01:40:36;2.33;;;1.60;;
17864;SDS011;9058;52.018;4.202;2023-04-03T01:43:02;2.40;;;1.27;;
17864;SDS011;9058;52.018;4.202;2023-04-03T01:45:30;2.50;;;1.40;;
17864;SDS011;9058;52.018;4.202;2023-04-03T01:47:57;1.53;;;1.40;;
17864;SDS011;9058;52.018;4.202;2023-04-03T01:50:25;2.37;;;1.73;;
17864;SDS011;9058;52.018;4.202;2023-04-03T01:52:51;3.17;;;1.60;;
17864;SDS011;9058;52.018;4.202;2023-04-03T01:55:18;2.63;;;1.97;;
17864;SDS011;9058;52.018;4.202;2023-04-03T01:57:44;2.53;;;1.80;;
17864;SDS011;9058;52.018;4.202;2023-04-03T02:00:10;2.87;;;1.47;;
17864;SDS011;9058;52.018;4.202;2023-04-03T02:02:37;6.80;;;1.80;;
17864;SDS011;9058;52.018;4.202;2023-04-03T02:05:04;1.37;;;1.20;;
17864;SDS011;9058;52.018;4.202;2023-04-03T02:07:32;2.53;;;1.50;;
17864;SDS011;9058;52.018;4.202;2023-04-03T02:09:59;4.67;;;1.73;;
17864;SDS011;9058;52.018;4.202;2023-04-03T02:12:25;4.40;;;1.67;;
17864;SDS011;9058;52.018;4.202;2023-04-03T02:14:51;2.00;;;1.50;;
17864;SDS011;9058;52.018;4.202;2023-04-03T02:17:18;2.80;;;1.73;;
17864;SDS011;9058;52.018;4.202;2023-04-03T02:19:44;2.20;;;1.50;;
17864;SDS011;9058;52.018;4.202;2023-04-03T02:22:10;4.80;;;1.70;;
17864;SDS011;9058;52.018;4.202;2023-04-03T02:24:38;1.53;;;1.40;;
17864;SDS011;9058;52.018;4.202;2023-04-03T02:27:05;3.00;;;1.73;;
17864;SDS011;9058;52.018;4.202;2023-04-03T02:29:31;1.93;;;1.63;;
17864;SDS011;9058;52.018;4.202;2023-04-03T02:31:58;3.30;;;1.93;;
17864;SDS011;9058;52.018;4.202;2023-04-03T02:34:24;1.90;;;1.80;;
17864;SDS011;9058;52.018;4.202;2023-04-03T02:36:50;2.90;;;1.80;;
17864;SDS011;9058;52.018;4.202;2023-04-03T02:39:17;3.03;;;2.07;;
17864;SDS011;9058;52.018;4.202;2023-04-03T02:41:46;3.40;;;1.50;;
17864;SDS011;9058;52.018;4.202;2023-04-03T02:44:12;2.50;;;1.60;;
17864;SDS011;9058;52.018;4.202;2023-04-03T02:46:38;3.17;;;2.03;;
17864;SDS011;9058;52.018;4.202;2023-04-03T02:49:05;2.70;;;1.90;;
17864;SDS011;9058;52.018;4.202;2023-04-03T02:51:31;3.10;;;1.67;;
17864;SDS011;9058;52.018;4.202;2023-04-03T02:53:58;2.77;;;1.80;;
17864;SDS011;9058;52.018;4.202;2023-04-03T02:56:24;2.50;;;1.60;;
17864;SDS011;9058;52.018;4.202;2023-04-03T02:58:53;3.67;;;1.77;;
17864;SDS011;9058;52.018;4.202;2023-04-03T03:01:20;3.30;;;2.00;;
17864;SDS011;9058;52.018;4.202;2023-04-03T03:03:47;3.83;;;1.90;;
17864;SDS011;9058;52.018;4.202;2023-04-03T03:06:14;1.63;;;1.37;;
17864;SDS011;9058;52.018;4.202;2023-04-03T03:08:43;2.30;;;2.10;;
17864;SDS011;9058;52.018;4.202;2023-04-03T03:11:09;2.63;;;1.60;;
17864;SDS011;9058;52.018;4.202;2023-04-03T03:13:36;1.80;;;1.70;;
17864;SDS011;9058;52.018;4.202;2023-04-03T03:16:04;4.60;;;1.70;;
17864;SDS011;9058;52.018;4.202;2023-04-03T03:18:30;2.13;;;1.57;;
17864;SDS011;9058;52.018;4.202;2023-04-03T03:20:58;3.53;;;1.70;;
17864;SDS011;9058;52.018;4.202;2023-04-03T03:23:25;2.50;;;1.43;;
17864;SDS011;9058;52.018;4.202;2023-04-03T03:25:54;2.80;;;1.70;;
17864;SDS011;9058;52.018;4.202;2023-04-03T03:28:21;2.90;;;2.07;;
17864;SDS011;9058;52.018;4.202;2023-04-03T03:30:47;2.87;;;2.00;;
17864;SDS011;9058;52.018;4.202;2023-04-03T03:33:15;2.97;;;2.20;;
17864;SDS011;9058;52.018;4.202;2023-04-03T03:35:42;4.23;;;1.90;;
17864;SDS011;9058;52.018;4.202;2023-04-03T03:38:08;4.27;;;2.10;;
17864;SDS011;9058;52.018;4.202;2023-04-03T03:40:35;3.90;;;1.77;;
17864;SDS011;9058;52.018;4.202;2023-04-03T03:43:01;4.17;;;2.27;;
17864;SDS011;9058;52.018;4.202;2023-04-03T03:45:28;5.13;;;1.70;;
17864;SDS011;9058;52.018;4.202;2023-04-03T03:47:54;3.87;;;2.10;;
17864;SDS011;9058;52.018;4.202;2023-04-03T03:50:22;2.93;;;2.10;;
17864;SDS011;9058;52.018;4.202;2023-04-03T03:52:48;5.33;;;2.13;;
17864;SDS011;9058;52.018;4.202;2023-04-03T03:55:16;2.63;;;2.00;;
17864;SDS011;9058;52.018;4.202;2023-04-03T03:57:43;3.53;;;2.10;;
17864;SDS011;9058;52.018;4.202;2023-04-03T04:00:10;2.87;;;2.00;;
17864;SDS011;9058;52.018;4.202;2023-04-03T04:02:37;3.90;;;2.27;;
17864;SDS011;9058;52.018;4.202;2023-04-03T04:05:04;2.63;;;2.10;;
17864;SDS011;9058;52.018;4.202;2023-04-03T04:07:31;3.57;;;2.60;;
17864;SDS011;9058;52.018;4.202;2023-04-03T04:09:58;3.63;;;2.30;;
17864;SDS011;9058;52.018;4.202;2023-04-03T04:12:24;3.23;;;2.50;;
17864;SDS011;9058;52.018;4.202;2023-04-03T04:14:50;3.53;;;2.47;;
17864;SDS011;9058;52.018;4.202;2023-04-03T04:17:17;3.40;;;2.40;;
17864;SDS011;9058;52.018;4.202;2023-04-03T04:19:43;3.90;;;2.20;;
17864;SDS011;9058;52.018;4.202;2023-04-03T04:22:10;4.07;;;2.37;;
17864;SDS011;9058;52.018;4.202;2023-04-03T04:24:38;4.90;;;1.90;;
17864;SDS011;9058;52.018;4.202;2023-04-03T04:27:05;3.77;;;1.97;;
17864;SDS011;9058;52.018;4.202;2023-04-03T04:29:31;2.50;;;2.00;;
17864;SDS011;9058;52.018;4.202;2023-04-03T04:32:02;4.73;;;2.47;;
17864;SDS011;9058;52.018;4.202;2023-04-03T04:34:28;3.93;;;1.93;;
17864;SDS011;9058;52.018;4.202;2023-04-03T04:36:55;4.90;;;2.00;;
17864;SDS011;9058;52.018;4.202;2023-04-03T04:39:21;2.83;;;1.83;;
17864;SDS011;9058;52.018;4.202;2023-04-03T04:41:50;3.47;;;2.13;;
17864;SDS011;9058;52.018;4.202;2023-04-03T04:44:17;5.83;;;2.43;;
17864;SDS011;9058;52.018;4.202;2023-04-03T04:46:44;4.00;;;2.30;;
17864;SDS011;9058;52.018;4.202;2023-04-03T04:49:10;3.50;;;2.30;;
17864;SDS011;9058;52.018;4.202;2023-04-03T04:51:37;2.83;;;2.23;;
17864;SDS011;9058;52.018;4.202;2023-04-03T04:54:04;4.03;;;1.87;;
17864;SDS011;9058;52.018;4.202;2023-04-03T04:56:30;3.60;;;2.30;;
17864;SDS011;9058;52.018;4.202;2023-04-03T04:58:59;4.77;;;2.23;;
17864;SDS011;9058;52.018;4.202;2023-04-03T05:01:25;4.50;;;2.63;;
17864;SDS011;9058;52.018;4.202;2023-04-03T05:03:51;4.60;;;2.30;;
17864;SDS011;9058;52.018;4.202;2023-04-03T05:06:18;2.93;;;2.20;;
17864;SDS011;9058;52.018;4.202;2023-04-03T05:08:45;3.57;;;2.33;;
17864;SDS011;9058;52.018;4.202;2023-04-03T05:11:11;4.33;;;2.60;;
17864;SDS011;9058;52.018;4.202;2023-04-03T05:13:37;4.83;;;3.10;;
17864;SDS011;9058;52.018;4.202;2023-04-03T05:16:05;3.23;;;2.23;;
17864;SDS011;9058;52.018;4.202;2023-04-03T05:18:32;3.80;;;2.57;;
17864;SDS011;9058;52.018;4.202;2023-04-03T05:20:58;3.53;;;2.27;;
17864;SDS011;9058;52.018;4.202;2023-04-03T05:23:25;4.60;;;2.50;;
17864;SDS011;9058;52.018;4.202;2023-04-03T05:25:51;4.37;;;2.20;;
17864;SDS011;9058;52.018;4.202;2023-04-03T05:28:17;3.73;;;2.00;;
17864;SDS011;9058;52.018;4.202;2023-04-03T05:30:44;5.50;;;2.57;;
17864;SDS011;9058;52.018;4.202;2023-04-03T05:33:11;4.57;;;2.77;;
17864;SDS011;9058;52.018;4.202;2023-04-03T05:35:39;3.40;;;2.27;;
17864;SDS011;9058;52.018;4.202;2023-04-03T05:38:07;3.57;;;2.47;;
17864;SDS011;9058;52.018;4.202;2023-04-03T05:40:34;3.30;;;2.67;;
17864;SDS011;9058;52.018;4.202;2023-04-03T05:43:00;4.60;;;2.73;;
17864;SDS011;9058;52.018;4.202;2023-04-03T05:45:27;5.53;;;2.87;;
17864;SDS011;9058;52.018;4.202;2023-04-03T05:47:54;4.77;;;2.40;;
17864;SDS011;9058;52.018;4.202;2023-04-03T05:50:22;5.50;;;2.70;;
17864;SDS011;9058;52.018;4.202;2023-04-03T05:52:49;2.83;;;2.60;;
17864;SDS011;9058;52.018;4.202;2023-04-03T05:55:17;4.03;;;2.97;;
17864;SDS011;9058;52.018;4.202;2023-04-03T05:57:43;3.53;;;2.70;;
17864;SDS011;9058;52.018;4.202;2023-04-03T06:00:12;4.60;;;2.27;;
17864;SDS011;9058;52.018;4.202;2023-04-03T06:02:39;5.93;;;2.43;;
17864;SDS011;9058;52.018;4.202;2023-04-03T06:05:07;4.50;;;2.70;;
17864;SDS011;9058;52.018;4.202;2023-04-03T06:07:34;3.57;;;2.30;;
17864;SDS011;9058;52.018;4.202;2023-04-03T06:10:01;4.80;;;2.47;;
17864;SDS011;9058;52.018;4.202;2023-04-03T06:12:28;6.23;;;2.30;;
17864;SDS011;9058;52.018;4.202;2023-04-03T06:14:55;4.53;;;2.33;;
17864;SDS011;9058;52.018;4.202;2023-04-03T06:17:21;5.63;;;2.47;;
17864;SDS011;9058;52.018;4.202;2023-04-03T06:19:48;5.43;;;2.60;;
17864;SDS011;9058;52.018;4.202;2023-04-03T06:22:16;9.00;;;2.10;;
17864;SDS011;9058;52.018;4.202;2023-04-03T06:24:43;2.50;;;2.27;;
17864;SDS011;9058;52.018;4.202;2023-04-03T06:27:10;4.70;;;2.73;;
17864;SDS011;9058;52.018;4.202;2023-04-03T06:29:37;5.93;;;2.87;;
17864;SDS011;9058;52.018;4.202;2023-04-03T06:32:03;4.63;;;2.37;;
17864;SDS011;9058;52.018;4.202;2023-04-03T06:34:30;2.77;;;1.63;;
17864;SDS011;9058;52.018;4.202;2023-04-03T06:36:58;3.22;;;2.20;;
17864;SDS011;9058;52.018;4.202;2023-04-03T06:39:25;4.07;;;1.97;;
17864;SDS011;9058;52.018;4.202;2023-04-03T06:41:53;4.07;;;1.73;;
17864;SDS011;9058;52.018;4.202;2023-04-03T06:44:20;3.97;;;1.90;;
17864;SDS011;9058;52.018;4.202;2023-04-03T06:46:46;4.97;;;2.37;;
17864;SDS011;9058;52.018;4.202;2023-04-03T06:49:13;4.60;;;2.10;;
17864;SDS011;9058;52.018;4.202;2023-04-03T06:51:40;2.97;;;2.10;;
17864;SDS011;9058;52.018;4.202;2023-04-03T06:54:07;5.87;;;2.10;;
17864;SDS011;9058;52.018;4.202;2023-04-03T06:56:34;5.03;;;2.53;;
17864;SDS011;9058;52.018;4.202;2023-04-03T06:59:03;4.73;;;1.90;;
17864;SDS011;9058;52.018;4.202;2023-04-03T07:01:30;3.73;;;1.97;;
17864;SDS011;9058;52.018;4.202;2023-04-03T07:03:56;3.43;;;1.87;;
17864;SDS011;9058;52.018;4.202;2023-04-03T07:06:23;3.83;;;2.40;;
17864;SDS011;9058;52.018;4.202;2023-04-03T07:08:51;4.63;;;2.03;;
17864;SDS011;9058;52.018;4.202;2023-04-03T07:11:18;4.27;;;2.03;;
17864;SDS011;9058;52.018;4.202;2023-04-03T07:13:45;3.63;;;2.10;;
17864;SDS011;9058;52.018;4.202;2023-04-03T07:16:13;4.00;;;2.00;;
17864;SDS011;9058;52.018;4.202;2023-04-03T07:18:40;6.00;;;1.93;;
17864;SDS011;9058;52.018;4.202;2023-04-03T07:21:06;4.10;;;2.20;;
17864;SDS011;9058;52.018;4.202;2023-04-03T07:23:33;2.60;;;2.40;;
17864;SDS011;9058;52.018;4.202;2023-04-03T07:25:59;4.97;;;2.15;;
17864;SDS011;9058;52.018;4.202;2023-04-03T07:28:27;3.40;;;2.40;;
17864;SDS011;9058;52.018;4.202;2023-04-03T07:30:54;3.97;;;2.08;;
17864;SDS011;9058;52.018;4.202;2023-04-03T07:33:26;5.32;;;2.45;;
17864;SDS011;9058;52.018;4.202;2023-04-03T07:35:52;5.13;;;1.90;;
17864;SDS011;9058;52.018;4.202;2023-04-03T07:38:19;3.42;;;1.70;;
17864;SDS011;9058;52.018;4.202;2023-04-03T07:40:46;3.15;;;1.90;;
17864;SDS011;9058;52.018;4.202;2023-04-03T07:43:12;1.65;;;1.55;;
17864;SDS011;9058;52.018;4.202;2023-04-03T07:45:39;2.03;;;1.75;;
17864;SDS011;9058;52.018;4.202;2023-04-03T07:48:06;5.35;;;2.00;;
17864;SDS011;9058;52.018;4.202;2023-04-03T07:50:34;6.18;;;1.70;;
17864;SDS011;9058;52.018;4.202;2023-04-03T07:53:01;8.23;;;2.25;;
17864;SDS011;9058;52.018;4.202;2023-04-03T07:55:27;2.55;;;1.75;;
17864;SDS011;9058;52.018;4.202;2023-04-03T07:57:54;2.03;;;1.52;;
17864;SDS011;9058;52.018;4.202;2023-04-03T08:00:21;7.07;;;2.10;;
17864;SDS011;9058;52.018;4.202;2023-04-03T08:02:47;3.80;;;1.92;;
17864;SDS011;9058;52.018;4.202;2023-04-03T08:05:16;4.57;;;1.90;;
17864;SDS011;9058;52.018;4.202;2023-04-03T08:07:45;4.03;;;1.73;;
17864;SDS011;9058;52.018;4.202;2023-04-03T08:10:11;5.10;;;2.47;;
17864;SDS011;9058;52.018;4.202;2023-04-03T08:12:38;7.20;;;1.95;;
17864;SDS011;9058;52.018;4.202;2023-04-03T08:15:05;6.43;;;2.85;;
17864;SDS011;9058;52.018;4.202;2023-04-03T08:17:32;2.80;;;2.10;;
17864;SDS011;9058;52.018;4.202;2023-04-03T08:19:58;4.95;;;1.50;;
17864;SDS011;9058;52.018;4.202;2023-04-03T08:22:24;2.95;;;1.58;;
17864;SDS011;9058;52.018;4.202;2023-04-03T08:24:52;6.88;;;1.35;;
17864;SDS011;9058;52.018;4.202;2023-04-03T08:27:18;3.00;;;1.17;;
17864;SDS011;9058;52.018;4.202;2023-04-03T08:29:45;1.92;;;1.10;;
17864;SDS011;9058;52.018;4.202;2023-04-03T08:32:11;2.53;;;1.30;;
17864;SDS011;9058;52.018;4.202;2023-04-03T08:34:37;3.13;;;1.35;;
17864;SDS011;9058;52.018;4.202;2023-04-03T08:37:04;4.35;;;1.55;;
17864;SDS011;9058;52.018;4.202;2023-04-03T08:39:31;2.65;;;1.40;;
17864;SDS011;9058;52.018;4.202;2023-04-03T08:41:59;3.83;;;1.70;;
17864;SDS011;9058;52.018;4.202;2023-04-03T08:44:31;3.38;;;1.60;;
17864;SDS011;9058;52.018;4.202;2023-04-03T08:47:02;3.97;;;1.50;;
17864;SDS011;9058;52.018;4.202;2023-04-03T08:49:31;3.50;;;1.35;;
17864;SDS011;9058;52.018;4.202;2023-04-03T08:51:58;1.90;;;1.45;;
17864;SDS011;9058;52.018;4.202;2023-04-03T08:54:28;2.80;;;1.55;;
17864;SDS011;9058;52.018;4.202;2023-04-03T08:56:55;3.85;;;1.60;;
17864;SDS011;9058;52.018;4.202;2023-04-03T08:59:26;2.28;;;1.50;;
17864;SDS011;9058;52.018;4.202;2023-04-03T09:01:55;4.25;;;1.30;;
17864;SDS011;9058;52.018;4.202;2023-04-03T09:04:23;3.28;;;1.50;;
17864;SDS011;9058;52.018;4.202;2023-04-03T09:06:52;2.65;;;1.25;;
17864;SDS011;9058;52.018;4.202;2023-04-03T09:09:23;3.25;;;1.30;;
17864;SDS011;9058;52.018;4.202;2023-04-03T09:11:57;5.85;;;1.70;;
17864;SDS011;9058;52.018;4.202;2023-04-03T09:14:28;4.82;;;1.40;;
17864;SDS011;9058;52.018;4.202;2023-04-03T09:16:59;4.65;;;1.98;;
17864;SDS011;9058;52.018;4.202;2023-04-03T09:19:28;3.17;;;1.33;;
17864;SDS011;9058;52.018;4.202;2023-04-03T09:21:57;1.50;;;1.38;;
17864;SDS011;9058;52.018;4.202;2023-04-03T09:24:24;3.08;;;1.58;;
17864;SDS011;9058;52.018;4.202;2023-04-03T09:26:51;1.95;;;1.27;;
17864;SDS011;9058;52.018;4.202;2023-04-03T09:29:21;3.75;;;1.48;;
17864;SDS011;9058;52.018;4.202;2023-04-03T09:31:49;2.85;;;1.50;;
17864;SDS011;9058;52.018;4.202;2023-04-03T09:34:17;3.08;;;1.05;;
17864;SDS011;9058;52.018;4.202;2023-04-03T09:36:47;1.15;;;0.70;;
17864;SDS011;9058;52.018;4.202;2023-04-03T09:39:14;2.20;;;0.80;;
17864;SDS011;9058;52.018;4.202;2023-04-03T09:41:41;2.05;;;0.88;;
17864;SDS011;9058;52.018;4.202;2023-04-03T09:44:20;1.35;;;0.70;;
17864;SDS011;9058;52.018;4.202;2023-04-03T09:46:48;3.05;;;0.93;;
17864;SDS011;9058;52.018;4.202;2023-04-03T09:49:16;3.28;;;1.00;;
17864;SDS011;9058;52.018;4.202;2023-04-03T09:51:43;1.13;;;1.02;;
17864;SDS011;9058;52.018;4.202;2023-04-03T09:54:23;1.67;;;1.00;;
17864;SDS011;9058;52.018;4.202;2023-04-03T09:56:50;0.82;;;0.80;;
17864;SDS011;9058;52.018;4.202;2023-04-03T09:59:17;1.48;;;1.00;;
17864;SDS011;9058;52.018;4.202;2023-04-03T10:01:44;1.42;;;1.10;;
17864;SDS011;9058;52.018;4.202;2023-04-03T10:04:23;1.25;;;0.80;;
17864;SDS011;9058;52.018;4.202;2023-04-03T10:06:51;0.60;;;0.60;;
17864;SDS011;9058;52.018;4.202;2023-04-03T10:09:18;1.40;;;0.70;;
17864;SDS011;9058;52.018;4.202;2023-04-03T10:11:59;0.60;;;0.60;;
17864;SDS011;9058;52.018;4.202;2023-04-03T10:14:29;3.70;;;0.95;;
17864;SDS011;9058;52.018;4.202;2023-04-03T10:16:57;1.00;;;0.75;;
17864;SDS011;9058;52.018;4.202;2023-04-03T10:19:34;0.85;;;0.85;;
17864;SDS011;9058;52.018;4.202;2023-04-03T10:22:02;1.50;;;0.80;;
17864;SDS011;9058;52.018;4.202;2023-04-03T10:24:31;1.23;;;0.82;;
17864;SDS011;9058;52.018;4.202;2023-04-03T10:27:02;1.65;;;1.00;;
17864;SDS011;9058;52.018;4.202;2023-04-03T10:29:34;1.00;;;0.80;;
17864;SDS011;9058;52.018;4.202;2023-04-03T10:32:03;2.15;;;0.60;;
17864;SDS011;9058;52.018;4.202;2023-04-03T10:34:39;1.52;;;1.10;;
17864;SDS011;9058;52.018;4.202;2023-04-03T10:37:09;1.27;;;0.73;;
17864;SDS011;9058;52.018;4.202;2023-04-03T10:39:39;1.23;;;0.65;;
17864;SDS011;9058;52.018;4.202;2023-04-03T10:42:12;1.02;;;0.80;;
17864;SDS011;9058;52.018;4.202;2023-04-03T10:44:42;1.55;;;0.90;;
17864;SDS011;9058;52.018;4.202;2023-04-03T10:47:14;1.02;;;0.90;;
17864;SDS011;9058;52.018;4.202;2023-04-03T10:49:48;1.23;;;0.70;;
17864;SDS011;9058;52.018;4.202;2023-04-03T10:52:19;3.53;;;0.75;;
17864;SDS011;9058;52.018;4.202;2023-04-03T10:54:48;0.57;;;0.50;;
17864;SDS011;9058;52.018;4.202;2023-04-03T10:57:15;0.98;;;0.95;;
17864;SDS011;9058;52.018;4.202;2023-04-03T10:59:43;1.35;;;0.90;;
17864;SDS011;9058;52.018;4.202;2023-04-03T11:02:13;2.65;;;1.17;;
17864;SDS011;9058;52.018;4.202;2023-04-03T11:04:41;2.78;;;1.13;;
17864;SDS011;9058;52.018;4.202;2023-04-03T11:07:11;1.92;;;1.20;;
17864;SDS011;9058;52.018;4.202;2023-04-03T11:09:39;1.02;;;1.00;;
17864;SDS011;9058;52.018;4.202;2023-04-03T11:12:09;1.92;;;1.10;;
17864;SDS011;9058;52.018;4.202;2023-04-03T11:14:38;2.88;;;1.15;;
17864;SDS011;9058;52.018;4.202;2023-04-03T11:17:10;2.53;;;1.33;;
17864;SDS011;9058;52.018;4.202;2023-04-03T11:19:39;1.20;;;0.70;;
17864;SDS011;9058;52.018;4.202;2023-04-03T11:22:09;1.02;;;0.63;;
17864;SDS011;9058;52.018;4.202;2023-04-03T11:24:38;1.52;;;0.60;;
17864;SDS011;9058;52.018;4.202;2023-04-03T11:27:08;0.73;;;0.70;;
17864;SDS011;9058;52.018;4.202;2023-04-03T11:29:39;1.25;;;1.17;;
17864;SDS011;9058;52.018;4.202;2023-04-03T11:32:09;1.45;;;0.80;;
17864;SDS011;9058;52.018;4.202;2023-04-03T11:34:37;0.90;;;0.63;;
17864;SDS011;9058;52.018;4.202;2023-04-03T11:37:11;0.80;;;0.70;;
17864;SDS011;9058;52.018;4.202;2023-04-03T11:39:40;1.80;;;0.80;;
17864;SDS011;9058;52.018;4.202;2023-04-03T11:42:13;3.33;;;1.10;;
17864;SDS011;9058;52.018;4.202;2023-04-03T11:44:40;3.63;;;0.85;;
17864;SDS011;9058;52.018;4.202;2023-04-03T11:47:07;1.35;;;1.20;;
17864;SDS011;9058;52.018;4.202;2023-04-03T11:49:51;1.75;;;1.00;;
17864;SDS011;9058;52.018;4.202;2023-04-03T11:55:01;1.70;;;0.80;;
17864;SDS011;9058;52.018;4.202;2023-04-03T11:57:46;1.52;;;1.00;;
17864;SDS011;9058;52.018;4.202;2023-04-03T12:02:58;1.00;;;0.90;;
17864;SDS011;9058;52.018;4.202;2023-04-03T12:05:26;1.52;;;1.02;;
17864;SDS011;9058;52.018;4.202;2023-04-03T12:10:36;0.98;;;0.80;;
17864;SDS011;9058;52.018;4.202;2023-04-03T12:13:12;0.93;;;0.85;;
17864;SDS011;9058;52.018;4.202;2023-04-03T12:15:44;0.70;;;0.70;;
17864;SDS011;9058;52.018;4.202;2023-04-03T12:20:59;2.17;;;0.93;;
17864;SDS011;9058;52.018;4.202;2023-04-03T12:23:28;1.75;;;1.00;;
17864;SDS011;9058;52.018;4.202;2023-04-03T12:26:01;1.60;;;0.80;;
17864;SDS011;9058;52.018;4.202;2023-04-03T12:28:29;0.52;;;0.50;;
17864;SDS011;9058;52.018;4.202;2023-04-03T12:30:55;1.10;;;0.88;;
17864;SDS011;9058;52.018;4.202;2023-04-03T12:33:24;1.33;;;0.70;;
17864;SDS011;9058;52.018;4.202;2023-04-03T12:35:57;0.50;;;0.40;;
17864;SDS011;9058;52.018;4.202;2023-04-03T12:38:29;1.05;;;0.80;;
17864;SDS011;9058;52.018;4.202;2023-04-03T12:41:03;1.10;;;0.80;;
17864;SDS011;9058;52.018;4.202;2023-04-03T12:43:41;0.70;;;0.70;;
17864;SDS011;9058;52.018;4.202;2023-04-03T12:46:11;0.60;;;0.60;;
17864;SDS011;9058;52.018;4.202;2023-04-03T12:48:46;2.92;;;0.90;;
17864;SDS011;9058;52.018;4.202;2023-04-03T12:51:13;0.68;;;0.65;;
17864;SDS011;9058;52.018;4.202;2023-04-03T12:53:40;0.50;;;0.50;;
17864;SDS011;9058;52.018;4.202;2023-04-03T12:56:21;3.60;;;0.50;;
17864;SDS011;9058;52.018;4.202;2023-04-03T12:58:48;0.50;;;0.50;;
17864;SDS011;9058;52.018;4.202;2023-04-03T13:01:16;2.13;;;0.60;;
17864;SDS011;9058;52.018;4.202;2023-04-03T13:03:43;0.93;;;0.70;;
17864;SDS011;9058;52.018;4.202;2023-04-03T13:06:11;0.50;;;0.50;;
17864;SDS011;9058;52.018;4.202;2023-04-03T13:08:47;0.55;;;0.55;;
17864;SDS011;9058;52.018;4.202;2023-04-03T13:11:15;1.05;;;0.60;;
17864;SDS011;9058;52.018;4.202;2023-04-03T13:13:54;0.45;;;0.43;;
17864;SDS011;9058;52.018;4.202;2023-04-03T13:16:21;0.50;;;0.50;;
17864;SDS011;9058;52.018;4.202;2023-04-03T13:18:50;2.55;;;1.25;;
17864;SDS011;9058;52.018;4.202;2023-04-03T13:21:17;0.52;;;0.52;;
17864;SDS011;9058;52.018;4.202;2023-04-03T13:23:45;1.50;;;0.95;;
17864;SDS011;9058;52.018;4.202;2023-04-03T13:26:14;0.65;;;0.55;;
17864;SDS011;9058;52.018;4.202;2023-04-03T13:28:41;1.40;;;0.60;;
17864;SDS011;9058;52.018;4.202;2023-04-03T13:31:17;5.68;;;0.82;;
17864;SDS011;9058;52.018;4.202;2023-04-03T13:33:51;0.50;;;0.50;;
17864;SDS011;9058;52.018;4.202;2023-04-03T13:36:19;1.13;;;0.63;;
17864;SDS011;9058;52.018;4.202;2023-04-03T13:38:46;3.00;;;0.65;;
17864;SDS011;9058;52.018;4.202;2023-04-03T13:41:24;1.23;;;1.00;;
17864;SDS011;9058;52.018;4.202;2023-04-03T13:43:51;1.27;;;0.88;;
17864;SDS011;9058;52.018;4.202;2023-04-03T13:46:23;1.98;;;1.13;;
17864;SDS011;9058;52.018;4.202;2023-04-03T13:48:50;1.60;;;0.73;;
17864;SDS011;9058;52.018;4.202;2023-04-03T13:51:18;1.15;;;0.88;;
17864;SDS011;9058;52.018;4.202;2023-04-03T13:53:47;1.20;;;1.10;;
17864;SDS011;9058;52.018;4.202;2023-04-03T13:56:17;1.30;;;1.10;;
17864;SDS011;9058;52.018;4.202;2023-04-03T13:58:52;1.02;;;1.00;;
17864;SDS011;9058;52.018;4.202;2023-04-03T14:01:25;0.77;;;0.70;;
17864;SDS011;9058;52.018;4.202;2023-04-03T14:04:09;1.40;;;1.02;;
17864;SDS011;9058;52.018;4.202;2023-04-03T14:06:36;2.47;;;0.80;;
17864;SDS011;9058;52.018;4.202;2023-04-03T14:09:02;1.20;;;1.10;;
17864;SDS011;9058;52.018;4.202;2023-04-03T14:11:29;0.82;;;0.80;;
17864;SDS011;9058;52.018;4.202;2023-04-03T14:13:57;2.20;;;1.25;;
17864;SDS011;9058;52.018;4.202;2023-04-03T14:16:26;1.48;;;0.95;;
17864;SDS011;9058;52.018;4.202;2023-04-03T14:18:55;1.58;;;0.90;;
17864;SDS011;9058;52.018;4.202;2023-04-03T14:21:23;2.00;;;0.98;;
17864;SDS011;9058;52.018;4.202;2023-04-03T14:23:50;1.85;;;1.17;;
17864;SDS011;9058;52.018;4.202;2023-04-03T14:26:18;1.58;;;1.15;;
17864;SDS011;9058;52.018;4.202;2023-04-03T14:28:45;1.10;;;1.00;;
17864;SDS011;9058;52.018;4.202;2023-04-03T14:31:12;1.38;;;1.00;;
17864;SDS011;9058;52.018;4.202;2023-04-03T14:33:39;2.03;;;1.17;;
17864;SDS011;9058;52.018;4.202;2023-04-03T14:36:10;1.08;;;0.65;;
17864;SDS011;9058;52.018;4.202;2023-04-03T14:38:39;1.95;;;1.30;;
17864;SDS011;9058;52.018;4.202;2023-04-03T14:41:06;1.13;;;0.90;;
17864;SDS011;9058;52.018;4.202;2023-04-03T14:43:33;2.28;;;1.10;;
17864;SDS011;9058;52.018;4.202;2023-04-03T14:45:59;2.80;;;1.00;;
17864;SDS011;9058;52.018;4.202;2023-04-03T14:48:27;2.72;;;1.00;;
17864;SDS011;9058;52.018;4.202;2023-04-03T14:50:53;1.48;;;1.00;;
17864;SDS011;9058;52.018;4.202;2023-04-03T14:53:20;1.27;;;0.90;;
17864;SDS011;9058;52.018;4.202;2023-04-03T14:55:51;3.13;;;1.08;;
17864;SDS011;9058;52.018;4.202;2023-04-03T14:58:19;1.25;;;1.00;;
17864;SDS011;9058;52.018;4.202;2023-04-03T15:00:45;1.83;;;1.10;;
17864;SDS011;9058;52.018;4.202;2023-04-03T15:03:13;1.52;;;1.20;;
17864;SDS011;9058;52.018;4.202;2023-04-03T15:05:40;1.08;;;0.95;;
17864;SDS011;9058;52.018;4.202;2023-04-03T15:08:08;1.58;;;0.98;;
17864;SDS011;9058;52.018;4.202;2023-04-03T15:10:39;1.23;;;0.82;;
17864;SDS011;9058;52.018;4.202;2023-04-03T15:13:07;2.88;;;1.30;;
17864;SDS011;9058;52.018;4.202;2023-04-03T15:15:34;1.15;;;0.95;;
17864;SDS011;9058;52.018;4.202;2023-04-03T15:18:02;1.15;;;0.90;;